sensor_id;sensor_type;location;lat;lon;timestamp;P1;durP1;ratioP1;P2;durP2;ratioP2
19384;SDS011;9828;54.122;17.974;2022-07-01T00:00:53;10.65;;;5.90;;
19384;SDS011;9828;54.122;17.974;2022-07-01T00:06:14;7.68;;;6.38;;
19384;SDS011;9828;54.122;17.974;2022-07-01T00:11:36;6.93;;;6.20;;
19384;SDS011;9828;54.122;17.974;2022-07-01T00:23:14;5.97;;;5.10;;
19384;SDS011;9828;54.122;17.974;2022-07-01T00:28:37;6.38;;;5.70;;
19384;SDS011;9828;54.122;17.974;2022-07-01T00:33:59;6.28;;;5.65;;
19384;SDS011;9828;54.122;17.974;2022-07-01T00:39:23;7.10;;;6.07;;
19384;SDS011;9828;54.122;17.974;2022-07-01T00:44:44;9.88;;;5.82;;
19384;SDS011;9828;54.122;17.974;2022-07-01T00:50:07;9.30;;;7.38;;
19384;SDS011;9828;54.122;17.974;2022-07-01T00:55:30;9.98;;;7.55;;
19384;SDS011;9828;54.122;17.974;2022-07-01T01:00:52;8.35;;;6.90;;
19384;SDS011;9828;54.122;17.974;2022-07-01T01:06:39;8.73;;;6.75;;
19384;SDS011;9828;54.122;17.974;2022-07-01T01:12:01;7.82;;;6.82;;
19384;SDS011;9828;54.122;17.974;2022-07-01T01:17:23;9.93;;;6.85;;
19384;SDS011;9828;54.122;17.974;2022-07-01T01:22:45;9.75;;;8.20;;
19384;SDS011;9828;54.122;17.974;2022-07-01T01:28:10;10.75;;;8.05;;
19384;SDS011;9828;54.122;17.974;2022-07-01T01:33:31;9.73;;;8.73;;
19384;SDS011;9828;54.122;17.974;2022-07-01T01:38:53;10.10;;;9.02;;
19384;SDS011;9828;54.122;17.974;2022-07-01T01:44:18;8.93;;;8.00;;
19384;SDS011;9828;54.122;17.974;2022-07-01T01:49:39;9.55;;;8.10;;
19384;SDS011;9828;54.122;17.974;2022-07-01T01:55:01;9.13;;;8.15;;
19384;SDS011;9828;54.122;17.974;2022-07-01T02:00:22;10.90;;;8.77;;
19384;SDS011;9828;54.122;17.974;2022-07-01T02:05:44;12.70;;;8.38;;
19384;SDS011;9828;54.122;17.974;2022-07-01T02:11:07;9.55;;;8.52;;
19384;SDS011;9828;54.122;17.974;2022-07-01T02:16:29;9.80;;;7.82;;
19384;SDS011;9828;54.122;17.974;2022-07-01T02:21:50;9.25;;;8.18;;
19384;SDS011;9828;54.122;17.974;2022-07-01T02:27:12;9.02;;;7.38;;
19384;SDS011;9828;54.122;17.974;2022-07-01T02:32:33;10.40;;;7.28;;
19384;SDS011;9828;54.122;17.974;2022-07-01T02:37:55;10.02;;;7.53;;
19384;SDS011;9828;54.122;17.974;2022-07-01T02:43:16;16.35;;;7.65;;
19384;SDS011;9828;54.122;17.974;2022-07-01T02:48:39;8.20;;;7.40;;
19384;SDS011;9828;54.122;17.974;2022-07-01T02:54:01;10.88;;;8.45;;
19384;SDS011;9828;54.122;17.974;2022-07-01T02:59:25;10.18;;;8.05;;
19384;SDS011;9828;54.122;17.974;2022-07-01T03:04:47;8.68;;;7.78;;
19384;SDS011;9828;54.122;17.974;2022-07-01T03:10:09;10.98;;;7.85;;
19384;SDS011;9828;54.122;17.974;2022-07-01T03:15:31;9.30;;;8.25;;
19384;SDS011;9828;54.122;17.974;2022-07-01T03:20:52;10.27;;;8.07;;
19384;SDS011;9828;54.122;17.974;2022-07-01T03:26:13;11.80;;;7.60;;
19384;SDS011;9828;54.122;17.974;2022-07-01T03:31:35;7.68;;;6.88;;
19384;SDS011;9828;54.122;17.974;2022-07-01T03:36:57;8.10;;;6.72;;
19384;SDS011;9828;54.122;17.974;2022-07-01T03:42:18;7.80;;;7.00;;
19384;SDS011;9828;54.122;17.974;2022-07-01T03:47:44;8.90;;;7.40;;
19384;SDS011;9828;54.122;17.974;2022-07-01T03:53:07;9.32;;;7.65;;
19384;SDS011;9828;54.122;17.974;2022-07-01T03:58:47;13.32;;;9.10;;
19384;SDS011;9828;54.122;17.974;2022-07-01T04:04:09;15.38;;;9.40;;
19384;SDS011;9828;54.122;17.974;2022-07-01T04:09:30;13.00;;;8.70;;
19384;SDS011;9828;54.122;17.974;2022-07-01T04:14:52;10.82;;;7.50;;
19384;SDS011;9828;54.122;17.974;2022-07-01T04:20:13;9.02;;;7.30;;
19384;SDS011;9828;54.122;17.974;2022-07-01T04:25:35;10.75;;;7.55;;
19384;SDS011;9828;54.122;17.974;2022-07-01T04:30:56;13.68;;;9.00;;
19384;SDS011;9828;54.122;17.974;2022-07-01T04:36:17;15.77;;;8.70;;
19384;SDS011;9828;54.122;17.974;2022-07-01T04:41:39;9.27;;;7.85;;
19384;SDS011;9828;54.122;17.974;2022-07-01T04:47:19;13.88;;;8.02;;
19384;SDS011;9828;54.122;17.974;2022-07-01T04:52:42;16.30;;;8.98;;
19384;SDS011;9828;54.122;17.974;2022-07-01T04:58:03;8.82;;;7.70;;
19384;SDS011;9828;54.122;17.974;2022-07-01T05:03:25;10.93;;;9.07;;
19384;SDS011;9828;54.122;17.974;2022-07-01T05:08:47;8.52;;;7.28;;
19384;SDS011;9828;54.122;17.974;2022-07-01T05:14:08;8.45;;;7.65;;
19384;SDS011;9828;54.122;17.974;2022-07-01T05:19:30;9.45;;;6.80;;
19384;SDS011;9828;54.122;17.974;2022-07-01T05:25:10;9.55;;;8.15;;
19384;SDS011;9828;54.122;17.974;2022-07-01T05:30:31;10.18;;;8.15;;
19384;SDS011;9828;54.122;17.974;2022-07-01T05:35:53;14.55;;;8.20;;
19384;SDS011;9828;54.122;17.974;2022-07-01T05:41:14;9.07;;;7.85;;
19384;SDS011;9828;54.122;17.974;2022-07-01T05:46:36;10.20;;;7.72;;
19384;SDS011;9828;54.122;17.974;2022-07-01T05:51:58;11.70;;;7.32;;
19384;SDS011;9828;54.122;17.974;2022-07-01T05:57:19;12.00;;;7.70;;
19384;SDS011;9828;54.122;17.974;2022-07-01T06:02:40;8.10;;;6.13;;
19384;SDS011;9828;54.122;17.974;2022-07-01T06:08:02;8.88;;;6.57;;
19384;SDS011;9828;54.122;17.974;2022-07-01T06:13:24;7.53;;;6.30;;
19384;SDS011;9828;54.122;17.974;2022-07-01T06:18:45;12.32;;;7.47;;
19384;SDS011;9828;54.122;17.974;2022-07-01T06:24:06;10.80;;;7.80;;
19384;SDS011;9828;54.122;17.974;2022-07-01T06:29:28;8.45;;;6.97;;
19384;SDS011;9828;54.122;17.974;2022-07-01T06:34:50;16.52;;;7.57;;
19384;SDS011;9828;54.122;17.974;2022-07-01T06:40:12;9.52;;;7.57;;
19384;SDS011;9828;54.122;17.974;2022-07-01T06:45:34;10.82;;;7.00;;
19384;SDS011;9828;54.122;17.974;2022-07-01T06:50:55;17.58;;;8.02;;
19384;SDS011;9828;54.122;17.974;2022-07-01T06:56:17;12.13;;;7.25;;
19384;SDS011;9828;54.122;17.974;2022-07-01T07:01:38;8.55;;;6.20;;
19384;SDS011;9828;54.122;17.974;2022-07-01T07:07:00;8.77;;;5.82;;
19384;SDS011;9828;54.122;17.974;2022-07-01T07:12:22;10.75;;;6.68;;
19384;SDS011;9828;54.122;17.974;2022-07-01T07:17:43;8.52;;;5.07;;
19384;SDS011;9828;54.122;17.974;2022-07-01T07:23:05;10.43;;;5.53;;
19384;SDS011;9828;54.122;17.974;2022-07-01T07:28:26;6.35;;;5.15;;
19384;SDS011;9828;54.122;17.974;2022-07-01T07:33:48;8.00;;;4.97;;
19384;SDS011;9828;54.122;17.974;2022-07-01T07:39:09;8.73;;;4.97;;
19384;SDS011;9828;54.122;17.974;2022-07-01T07:44:31;7.70;;;5.20;;
19384;SDS011;9828;54.122;17.974;2022-07-01T07:49:52;9.95;;;5.47;;
19384;SDS011;9828;54.122;17.974;2022-07-01T07:55:13;7.60;;;5.00;;
19384;SDS011;9828;54.122;17.974;2022-07-01T08:00:35;8.80;;;5.30;;
19384;SDS011;9828;54.122;17.974;2022-07-01T08:06:00;7.15;;;4.75;;
19384;SDS011;9828;54.122;17.974;2022-07-01T08:11:21;8.07;;;4.57;;
19384;SDS011;9828;54.122;17.974;2022-07-01T08:16:42;10.27;;;5.13;;
19384;SDS011;9828;54.122;17.974;2022-07-01T08:22:03;5.90;;;4.78;;
19384;SDS011;9828;54.122;17.974;2022-07-01T08:27:25;6.47;;;3.83;;
19384;SDS011;9828;54.122;17.974;2022-07-01T08:32:46;10.40;;;4.28;;
19384;SDS011;9828;54.122;17.974;2022-07-01T08:38:08;13.30;;;4.65;;
19384;SDS011;9828;54.122;17.974;2022-07-01T08:43:30;13.10;;;5.07;;
19384;SDS011;9828;54.122;17.974;2022-07-01T08:48:52;8.90;;;4.88;;
19384;SDS011;9828;54.122;17.974;2022-07-01T08:54:14;9.90;;;5.32;;
19384;SDS011;9828;54.122;17.974;2022-07-01T08:59:36;6.00;;;4.88;;
19384;SDS011;9828;54.122;17.974;2022-07-01T09:05:06;7.97;;;4.97;;
19384;SDS011;9828;54.122;17.974;2022-07-01T09:10:28;8.68;;;5.13;;
19384;SDS011;9828;54.122;17.974;2022-07-01T09:15:57;12.55;;;4.82;;
19384;SDS011;9828;54.122;17.974;2022-07-01T09:21:18;6.57;;;4.43;;
19384;SDS011;9828;54.122;17.974;2022-07-01T09:26:40;7.85;;;4.88;;
19384;SDS011;9828;54.122;17.974;2022-07-01T09:32:22;9.60;;;4.95;;
19384;SDS011;9828;54.122;17.974;2022-07-01T09:37:44;6.72;;;4.78;;
19384;SDS011;9828;54.122;17.974;2022-07-01T09:43:05;13.60;;;6.90;;
19384;SDS011;9828;54.122;17.974;2022-07-01T09:48:28;7.90;;;4.97;;
19384;SDS011;9828;54.122;17.974;2022-07-01T09:54:03;8.57;;;5.28;;
19384;SDS011;9828;54.122;17.974;2022-07-01T09:59:25;9.18;;;5.93;;
19384;SDS011;9828;54.122;17.974;2022-07-01T10:04:47;11.90;;;6.13;;
19384;SDS011;9828;54.122;17.974;2022-07-01T10:16:26;8.05;;;6.15;;
19384;SDS011;9828;54.122;17.974;2022-07-01T10:21:47;15.02;;;6.40;;
19384;SDS011;9828;54.122;17.974;2022-07-01T10:27:18;10.80;;;7.35;;
19384;SDS011;9828;54.122;17.974;2022-07-01T10:32:51;6.88;;;4.55;;
19384;SDS011;9828;54.122;17.974;2022-07-01T10:38:27;9.98;;;5.18;;
19384;SDS011;9828;54.122;17.974;2022-07-01T10:43:48;8.82;;;5.60;;
19384;SDS011;9828;54.122;17.974;2022-07-01T10:49:10;12.25;;;7.20;;
19384;SDS011;9828;54.122;17.974;2022-07-01T11:05:20;11.10;;;6.88;;
19384;SDS011;9828;54.122;17.974;2022-07-01T11:10:43;11.25;;;7.65;;
19384;SDS011;9828;54.122;17.974;2022-07-01T11:16:05;18.75;;;8.80;;
19384;SDS011;9828;54.122;17.974;2022-07-01T11:21:26;9.73;;;6.60;;
19384;SDS011;9828;54.122;17.974;2022-07-01T11:26:48;13.38;;;6.85;;
19384;SDS011;9828;54.122;17.974;2022-07-01T11:32:10;17.58;;;6.78;;
19384;SDS011;9828;54.122;17.974;2022-07-01T11:37:31;9.32;;;6.30;;
19384;SDS011;9828;54.122;17.974;2022-07-01T11:43:17;11.93;;;7.32;;
19384;SDS011;9828;54.122;17.974;2022-07-01T11:54:03;9.27;;;6.25;;
19384;SDS011;9828;54.122;17.974;2022-07-01T11:59:27;9.75;;;6.90;;
19384;SDS011;9828;54.122;17.974;2022-07-01T12:04:49;9.23;;;6.18;;
19384;SDS011;9828;54.122;17.974;2022-07-01T12:10:14;9.73;;;7.32;;
19384;SDS011;9828;54.122;17.974;2022-07-01T12:15:37;11.75;;;7.65;;
19384;SDS011;9828;54.122;17.974;2022-07-01T12:20:58;13.85;;;7.38;;
19384;SDS011;9828;54.122;17.974;2022-07-01T12:26:21;10.88;;;7.85;;
19384;SDS011;9828;54.122;17.974;2022-07-01T12:31:43;12.15;;;8.27;;
19384;SDS011;9828;54.122;17.974;2022-07-01T12:37:15;11.88;;;7.32;;
19384;SDS011;9828;54.122;17.974;2022-07-01T12:42:47;9.38;;;7.88;;
19384;SDS011;9828;54.122;17.974;2022-07-01T12:48:08;10.82;;;9.10;;
19384;SDS011;9828;54.122;17.974;2022-07-01T12:53:30;12.98;;;9.35;;
19384;SDS011;9828;54.122;17.974;2022-07-01T12:58:51;12.27;;;10.65;;
19384;SDS011;9828;54.122;17.974;2022-07-01T13:04:14;13.35;;;10.90;;
19384;SDS011;9828;54.122;17.974;2022-07-01T13:09:48;13.52;;;10.75;;
19384;SDS011;9828;54.122;17.974;2022-07-01T13:15:17;11.43;;;10.32;;
19384;SDS011;9828;54.122;17.974;2022-07-01T13:20:39;13.60;;;9.35;;
19384;SDS011;9828;54.122;17.974;2022-07-01T13:26:02;10.35;;;9.35;;
19384;SDS011;9828;54.122;17.974;2022-07-01T13:31:23;12.95;;;9.52;;
19384;SDS011;9828;54.122;17.974;2022-07-01T13:36:44;17.50;;;10.05;;
19384;SDS011;9828;54.122;17.974;2022-07-01T13:42:06;19.83;;;10.50;;
19384;SDS011;9828;54.122;17.974;2022-07-01T13:47:27;14.63;;;9.45;;
19384;SDS011;9828;54.122;17.974;2022-07-01T13:52:49;13.07;;;8.93;;
19384;SDS011;9828;54.122;17.974;2022-07-01T13:58:11;10.60;;;8.60;;
19384;SDS011;9828;54.122;17.974;2022-07-01T14:03:34;10.65;;;8.57;;
19384;SDS011;9828;54.122;17.974;2022-07-01T14:08:55;13.05;;;8.77;;
19384;SDS011;9828;54.122;17.974;2022-07-01T14:14:17;12.27;;;9.18;;
19384;SDS011;9828;54.122;17.974;2022-07-01T14:19:38;11.48;;;8.90;;
19384;SDS011;9828;54.122;17.974;2022-07-01T14:25:00;15.10;;;8.65;;
19384;SDS011;9828;54.122;17.974;2022-07-01T14:30:21;12.32;;;9.00;;
19384;SDS011;9828;54.122;17.974;2022-07-01T14:35:43;9.57;;;7.50;;
19384;SDS011;9828;54.122;17.974;2022-07-01T14:41:05;14.27;;;8.43;;
19384;SDS011;9828;54.122;17.974;2022-07-01T14:46:26;9.88;;;7.93;;
19384;SDS011;9828;54.122;17.974;2022-07-01T14:51:48;17.20;;;7.40;;
19384;SDS011;9828;54.122;17.974;2022-07-01T14:57:10;17.58;;;7.00;;
19384;SDS011;9828;54.122;17.974;2022-07-01T15:02:32;10.68;;;6.97;;
19384;SDS011;9828;54.122;17.974;2022-07-01T15:07:54;10.27;;;7.10;;
19384;SDS011;9828;54.122;17.974;2022-07-01T15:13:15;10.57;;;7.00;;
19384;SDS011;9828;54.122;17.974;2022-07-01T15:18:37;9.68;;;6.95;;
19384;SDS011;9828;54.122;17.974;2022-07-01T15:23:58;11.70;;;7.82;;
19384;SDS011;9828;54.122;17.974;2022-07-01T15:29:20;9.30;;;7.82;;
19384;SDS011;9828;54.122;17.974;2022-07-01T15:34:41;7.47;;;6.68;;
19384;SDS011;9828;54.122;17.974;2022-07-01T15:40:03;9.40;;;6.85;;
19384;SDS011;9828;54.122;17.974;2022-07-01T15:45:26;7.07;;;6.38;;
19384;SDS011;9828;54.122;17.974;2022-07-01T15:50:47;9.90;;;5.72;;
19384;SDS011;9828;54.122;17.974;2022-07-01T15:56:10;13.55;;;6.63;;
19384;SDS011;9828;54.122;17.974;2022-07-01T16:01:31;9.98;;;6.47;;
19384;SDS011;9828;54.122;17.974;2022-07-01T16:06:52;7.70;;;6.43;;
19384;SDS011;9828;54.122;17.974;2022-07-01T16:12:14;10.00;;;6.57;;
19384;SDS011;9828;54.122;17.974;2022-07-01T16:17:36;17.98;;;6.90;;
19384;SDS011;9828;54.122;17.974;2022-07-01T16:22:58;13.45;;;6.28;;
19384;SDS011;9828;54.122;17.974;2022-07-01T16:28:20;19.42;;;8.85;;
19384;SDS011;9828;54.122;17.974;2022-07-01T16:33:43;18.45;;;9.68;;
19384;SDS011;9828;54.122;17.974;2022-07-01T16:39:05;17.67;;;5.93;;
19384;SDS011;9828;54.122;17.974;2022-07-01T16:44:44;11.43;;;4.40;;
19384;SDS011;9828;54.122;17.974;2022-07-01T16:50:19;5.57;;;2.75;;
19384;SDS011;9828;54.122;17.974;2022-07-01T16:55:44;4.57;;;2.50;;
19384;SDS011;9828;54.122;17.974;2022-07-01T17:01:06;4.70;;;3.22;;
19384;SDS011;9828;54.122;17.974;2022-07-01T17:06:29;7.65;;;4.45;;
19384;SDS011;9828;54.122;17.974;2022-07-01T17:11:53;5.00;;;3.53;;
19384;SDS011;9828;54.122;17.974;2022-07-01T17:17:16;7.13;;;4.47;;
19384;SDS011;9828;54.122;17.974;2022-07-01T17:28:27;7.78;;;4.28;;
19384;SDS011;9828;54.122;17.974;2022-07-01T17:34:05;5.72;;;3.78;;
19384;SDS011;9828;54.122;17.974;2022-07-01T17:39:30;5.68;;;4.72;;
19384;SDS011;9828;54.122;17.974;2022-07-01T17:44:59;5.20;;;4.10;;
19384;SDS011;9828;54.122;17.974;2022-07-01T17:50:25;8.75;;;4.78;;
19384;SDS011;9828;54.122;17.974;2022-07-01T17:55:48;9.77;;;4.80;;
19384;SDS011;9828;54.122;17.974;2022-07-01T18:01:14;6.57;;;3.90;;
19384;SDS011;9828;54.122;17.974;2022-07-01T18:06:38;6.00;;;3.97;;
19384;SDS011;9828;54.122;17.974;2022-07-01T18:12:14;7.28;;;3.83;;
19384;SDS011;9828;54.122;17.974;2022-07-01T18:23:20;8.38;;;5.72;;
19384;SDS011;9828;54.122;17.974;2022-07-01T18:28:55;7.18;;;4.72;;
19384;SDS011;9828;54.122;17.974;2022-07-01T18:34:28;8.65;;;4.55;;
19384;SDS011;9828;54.122;17.974;2022-07-01T18:40:16;4.35;;;3.63;;
19384;SDS011;9828;54.122;17.974;2022-07-01T18:45:39;6.72;;;4.47;;
19384;SDS011;9828;54.122;17.974;2022-07-01T18:51:00;4.35;;;3.80;;
19384;SDS011;9828;54.122;17.974;2022-07-01T18:56:21;5.47;;;4.03;;
19384;SDS011;9828;54.122;17.974;2022-07-01T19:01:42;4.78;;;4.38;;
19384;SDS011;9828;54.122;17.974;2022-07-01T19:07:04;5.13;;;4.10;;
19384;SDS011;9828;54.122;17.974;2022-07-01T19:12:25;4.55;;;3.90;;
19384;SDS011;9828;54.122;17.974;2022-07-01T19:17:46;7.78;;;4.25;;
19384;SDS011;9828;54.122;17.974;2022-07-01T19:23:09;4.53;;;4.10;;
19384;SDS011;9828;54.122;17.974;2022-07-01T19:28:30;3.60;;;3.28;;
19384;SDS011;9828;54.122;17.974;2022-07-01T19:33:51;4.70;;;4.00;;
19384;SDS011;9828;54.122;17.974;2022-07-01T19:39:12;7.50;;;4.68;;
19384;SDS011;9828;54.122;17.974;2022-07-01T19:44:34;4.65;;;4.25;;
19384;SDS011;9828;54.122;17.974;2022-07-01T19:49:55;5.28;;;4.72;;
19384;SDS011;9828;54.122;17.974;2022-07-01T19:55:17;6.72;;;4.45;;
19384;SDS011;9828;54.122;17.974;2022-07-01T20:00:38;4.43;;;4.03;;
19384;SDS011;9828;54.122;17.974;2022-07-01T20:05:59;5.22;;;4.80;;
19384;SDS011;9828;54.122;17.974;2022-07-01T20:11:21;5.72;;;5.22;;
19384;SDS011;9828;54.122;17.974;2022-07-01T20:16:43;7.63;;;6.28;;
19384;SDS011;9828;54.122;17.974;2022-07-01T20:22:04;8.38;;;6.00;;
19384;SDS011;9828;54.122;17.974;2022-07-01T20:27:26;7.55;;;6.63;;
19384;SDS011;9828;54.122;17.974;2022-07-01T20:32:47;7.13;;;6.18;;
19384;SDS011;9828;54.122;17.974;2022-07-01T20:38:08;8.48;;;6.78;;
19384;SDS011;9828;54.122;17.974;2022-07-01T20:43:30;9.68;;;8.75;;
19384;SDS011;9828;54.122;17.974;2022-07-01T20:48:51;12.23;;;8.95;;
19384;SDS011;9828;54.122;17.974;2022-07-01T20:54:12;12.30;;;9.70;;
19384;SDS011;9828;54.122;17.974;2022-07-01T20:59:34;11.38;;;10.18;;
19384;SDS011;9828;54.122;17.974;2022-07-01T21:04:55;12.93;;;11.35;;
19384;SDS011;9828;54.122;17.974;2022-07-01T21:10:16;13.52;;;12.15;;
19384;SDS011;9828;54.122;17.974;2022-07-01T21:15:38;11.85;;;10.65;;
19384;SDS011;9828;54.122;17.974;2022-07-01T21:20:59;9.95;;;8.93;;
19384;SDS011;9828;54.122;17.974;2022-07-01T21:26:21;8.98;;;8.00;;
19384;SDS011;9828;54.122;17.974;2022-07-01T21:31:42;10.63;;;7.95;;
19384;SDS011;9828;54.122;17.974;2022-07-01T21:37:04;9.15;;;8.15;;
19384;SDS011;9828;54.122;17.974;2022-07-01T21:42:26;6.97;;;6.28;;
19384;SDS011;9828;54.122;17.974;2022-07-01T21:47:50;7.47;;;6.78;;
19384;SDS011;9828;54.122;17.974;2022-07-01T21:53:12;8.25;;;6.90;;
19384;SDS011;9828;54.122;17.974;2022-07-01T21:58:35;10.02;;;7.30;;
19384;SDS011;9828;54.122;17.974;2022-07-01T22:03:57;10.88;;;7.45;;
19384;SDS011;9828;54.122;17.974;2022-07-01T22:09:20;8.38;;;7.32;;
19384;SDS011;9828;54.122;17.974;2022-07-01T22:14:53;7.75;;;6.50;;
19384;SDS011;9828;54.122;17.974;2022-07-01T22:20:16;6.28;;;5.55;;
19384;SDS011;9828;54.122;17.974;2022-07-01T22:25:39;7.22;;;6.30;;
19384;SDS011;9828;54.122;17.974;2022-07-01T22:31:01;9.00;;;5.68;;
19384;SDS011;9828;54.122;17.974;2022-07-01T22:36:25;8.15;;;6.18;;
19384;SDS011;9828;54.122;17.974;2022-07-01T22:41:47;5.95;;;5.28;;
19384;SDS011;9828;54.122;17.974;2022-07-01T22:47:11;5.90;;;5.15;;
19384;SDS011;9828;54.122;17.974;2022-07-01T22:52:36;10.60;;;5.70;;
19384;SDS011;9828;54.122;17.974;2022-07-01T23:04:10;5.35;;;4.82;;
19384;SDS011;9828;54.122;17.974;2022-07-01T23:10:21;8.23;;;4.93;;
19384;SDS011;9828;54.122;17.974;2022-07-01T23:15:34;10.27;;;6.22;;
19384;SDS011;9828;54.122;17.974;2022-07-01T23:21:16;6.47;;;5.40;;
19384;SDS011;9828;54.122;17.974;2022-07-01T23:26:37;7.65;;;5.75;;
19384;SDS011;9828;54.122;17.974;2022-07-01T23:32:03;7.38;;;5.63;;
19384;SDS011;9828;54.122;17.974;2022-07-01T23:37:26;8.43;;;5.25;;
19384;SDS011;9828;54.122;17.974;2022-07-01T23:42:48;7.18;;;4.82;;
19384;SDS011;9828;54.122;17.974;2022-07-01T23:48:10;7.65;;;5.60;;
19384;SDS011;9828;54.122;17.974;2022-07-01T23:53:31;6.50;;;4.70;;
19384;SDS011;9828;54.122;17.974;2022-07-01T23:58:53;6.10;;;4.88;;
